Terminal Aerodrome Forecast
Issued by NWS

Home | Current Version | Previous Version | Graphics & Text | Print | Product List | Glossary On
Versions: 1 2 3 4 5 6 7 8 9 10 11 12 13 14 15
000
FTUS42 KMHX 282325
TAFPGV
TAF
KPGV 282325Z 2900/2924 20010KT P6SM SKC
     FM290800 20005KT P6SM SCT004 BKN005
     FM291000 21005KT P6SM BKN004 BKN009
     FM291200 22005KT P6SM SCT004 BKN007
     FM291300 22010KT P6SM SCT080
     FM292000 22010G20KT P6SM SCT080
      AMD LTD TO CLD VIS AND WIND=

USA.gov is the U.S. government's official web portal to all federal, state and local government web resources and services.